createdAt,value
2022-12-19T00:00:16.815Z,62.03
2022-12-19T00:02:44.798Z,63.15
2022-12-19T00:05:14.258Z,56.97
2022-12-19T00:07:41.494Z,56.83
2022-12-19T00:10:09.494Z,52.17
2022-12-19T00:12:37.260Z,51.83
2022-12-19T00:15:05.289Z,59.85
2022-12-19T00:17:33.481Z,59.07
2022-12-19T00:20:04.472Z,62.67
2022-12-19T00:22:31.836Z,62.83
2022-12-19T00:24:59.085Z,56.53
2022-12-19T00:27:26.831Z,54.03
2022-12-19T00:29:54.502Z,51.87
2022-12-19T00:32:22.170Z,51.28
2022-12-19T00:34:49.505Z,58.60
2022-12-19T00:37:17.117Z,58.17
2022-12-19T00:39:44.508Z,56.53
2022-12-19T00:42:12.509Z,52.10
2022-12-19T00:44:40.040Z,55.00
2022-12-19T00:47:07.596Z,57.85
2022-12-19T00:49:35.435Z,60.60
2022-12-19T00:52:05.261Z,59.58
2022-12-19T00:54:32.584Z,58.07
2022-12-19T00:57:00.714Z,62.05
2022-12-19T00:59:27.852Z,59.45
2022-12-19T01:01:55.588Z,54.65
2022-12-19T01:04:29.111Z,63.88
2022-12-19T01:06:58.087Z,55.87
2022-12-19T01:09:31.515Z,59.35
2022-12-19T01:12:17.721Z,61.63
2022-12-19T01:14:45.292Z,67.75
2022-12-19T01:17:13.096Z,62.92
2022-12-19T01:19:44.297Z,59.47
2022-12-19T01:22:15.064Z,68.97
2022-12-19T01:24:43.120Z,62.05
2022-12-19T01:27:10.500Z,61.80
2022-12-19T01:29:51.167Z,73.93
2022-12-19T01:32:21.622Z,86.23
2022-12-19T01:34:48.997Z,76.63
2022-12-19T01:37:16.733Z,79.80
2022-12-19T01:39:44.971Z,65.28
2022-12-19T01:42:23.522Z,77.15
2022-12-19T01:45:13.417Z,79.07
2022-12-19T01:47:54.740Z,76.28
2022-12-19T01:50:51.433Z,78.80
2022-12-19T01:53:34.031Z,73.65
2022-12-19T01:56:09.069Z,78.22
2022-12-19T01:58:38.085Z,90.20
2022-12-19T02:01:06.353Z,79.40
2022-12-19T02:03:35.670Z,73.32
2022-12-19T02:06:05.661Z,97.95
2022-12-19T02:08:33.018Z,80.47
2022-12-19T02:11:03.037Z,83.93
2022-12-19T02:13:30.624Z,75.05
2022-12-19T02:16:22.657Z,81.53
2022-12-19T02:19:17.907Z,73.70
2022-12-19T02:21:49.401Z,63.28
2022-12-19T02:24:20.875Z,83.83
2022-12-19T02:27:02.048Z,78.45
2022-12-19T02:29:56.498Z,66.00
2022-12-19T02:33:01.566Z,81.40
2022-12-19T02:35:36.889Z,64.93
2022-12-19T02:38:16.702Z,76.80
2022-12-19T02:41:01.314Z,74.18
2022-12-19T02:43:31.041Z,66.35
2022-12-19T02:45:59.508Z,70.70
2022-12-19T02:48:27.761Z,82.85
2022-12-19T02:50:55.207Z,90.70
2022-12-19T02:53:23.928Z,80.10
2022-12-19T02:56:14.664Z,78.00
2022-12-19T02:59:00.729Z,77.50
2022-12-19T03:01:58.476Z,85.47
2022-12-19T03:04:39.751Z,77.43
2022-12-19T03:07:17.240Z,75.18
2022-12-19T03:09:59.342Z,82.05
2022-12-19T03:12:35.561Z,87.80
2022-12-19T03:15:03.948Z,77.20
2022-12-19T03:17:36.040Z,79.37
2022-12-19T03:20:11.586Z,84.85
2022-12-19T03:22:39.354Z,86.80
2022-12-19T03:25:07.614Z,78.40
2022-12-19T03:27:36.098Z,86.32
2022-12-19T03:30:12.775Z,84.47
2022-12-19T03:32:42.592Z,78.07
2022-12-19T03:35:16.363Z,83.15
2022-12-19T03:37:45.164Z,82.32
2022-12-19T03:40:19.800Z,76.75
2022-12-19T03:43:07.610Z,75.33
2022-12-19T03:45:40.920Z,75.97
2022-12-19T03:48:15.891Z,75.03
2022-12-19T03:50:53.809Z,69.38
2022-12-19T03:53:45.997Z,74.25
2022-12-19T03:56:38.901Z,79.43
2022-12-19T03:59:28.814Z,75.90
2022-12-19T04:01:57.727Z,73.68
2022-12-19T04:04:28.018Z,83.13
2022-12-19T04:06:55.692Z,79.03
2022-12-19T04:09:24.284Z,81.47
2022-12-19T04:11:55.138Z,71.05
2022-12-19T04:14:31.749Z,74.05
2022-12-19T04:17:33.392Z,80.22
2022-12-19T04:20:09.391Z,90.38
2022-12-19T04:22:44.031Z,88.27
2022-12-19T04:25:15.404Z,96.80
2022-12-19T04:27:46.788Z,97.00
2022-12-19T04:30:17.031Z,82.00
2022-12-19T04:32:45.055Z,88.82
2022-12-19T04:35:12.836Z,81.37
2022-12-19T04:37:40.639Z,84.22
2022-12-19T04:40:09.045Z,93.10
2022-12-19T04:42:37.048Z,89.78
2022-12-19T04:45:06.061Z,85.82
2022-12-19T04:47:33.632Z,71.30
2022-12-19T04:50:01.400Z,82.35
2022-12-19T04:52:28.844Z,83.40
2022-12-19T04:54:56.055Z,75.13
2022-12-19T04:57:23.753Z,77.70
2022-12-19T04:59:51.056Z,81.40
2022-12-19T05:02:18.957Z,73.72
2022-12-19T05:04:46.835Z,74.78
2022-12-19T05:07:14.652Z,75.47
2022-12-19T05:09:42.014Z,71.10
2022-12-19T05:12:10.516Z,76.60
2022-12-19T05:14:38.706Z,78.38
2022-12-19T05:17:06.418Z,66.60
2022-12-19T05:19:33.856Z,68.60
2022-12-19T05:22:01.067Z,75.40
2022-12-19T05:24:28.853Z,77.83
2022-12-19T05:26:56.333Z,72.00
2022-12-19T05:29:23.715Z,81.25
2022-12-19T05:31:51.074Z,69.65
2022-12-19T05:34:18.650Z,77.20
2022-12-19T05:36:46.803Z,79.93
2022-12-19T05:39:14.571Z,73.47
2022-12-19T05:41:41.968Z,82.43
2022-12-19T05:44:09.910Z,80.32
2022-12-19T05:46:37.718Z,83.10
2022-12-19T05:49:05.052Z,76.27
2022-12-19T05:51:32.863Z,90.40
2022-12-19T05:54:03.188Z,82.53
2022-12-19T05:56:31.086Z,78.25
2022-12-19T05:58:58.281Z,83.93
2022-12-19T06:01:27.977Z,73.60
2022-12-19T06:03:55.715Z,78.25
2022-12-19T06:06:25.092Z,76.35
2022-12-19T06:08:56.046Z,74.28
2022-12-19T06:11:23.965Z,75.10
2022-12-19T06:13:53.982Z,79.83
2022-12-19T06:16:22.046Z,69.50
2022-12-19T06:18:49.079Z,84.70
2022-12-19T06:21:21.859Z,68.70
2022-12-19T06:23:49.199Z,75.22
2022-12-19T06:26:20.093Z,66.83
2022-12-19T06:28:48.876Z,78.63
2022-12-19T06:31:16.932Z,80.13
2022-12-19T06:33:44.317Z,72.10
2022-12-19T06:36:23.911Z,69.25
2022-12-19T06:38:52.011Z,68.87
2022-12-19T06:41:38.848Z,77.57
2022-12-19T06:44:09.049Z,76.38
2022-12-19T06:46:37.521Z,74.03
2022-12-19T06:49:05.091Z,96.57
2022-12-19T06:51:32.893Z,78.67
2022-12-19T07:00:55.252Z,77.53
2022-12-19T07:03:26.363Z,68.55
2022-12-19T07:05:54.480Z,67.83
2022-12-19T07:08:21.456Z,66.95
2022-12-19T07:10:48.337Z,72.43
2022-12-19T07:13:15.474Z,73.40
2022-12-19T07:15:42.404Z,70.82
2022-12-19T07:18:09.864Z,64.37
2022-12-19T07:20:41.827Z,68.68
2022-12-19T07:23:14.688Z,68.45
2022-12-19T07:25:42.081Z,68.88
2022-12-19T07:28:09.083Z,68.57
2022-12-19T07:30:36.077Z,74.07
2022-12-19T07:33:02.945Z,63.42
2022-12-19T07:35:30.003Z,65.65
2022-12-19T07:38:02.974Z,64.55
2022-12-19T07:40:30.042Z,41.05
2022-12-19T07:43:00.801Z,50.40
2022-12-19T07:45:28.198Z,52.95
2022-12-19T07:47:55.029Z,70.53
2022-12-19T07:50:22.437Z,61.92
2022-12-19T07:52:49.195Z,59.53
2022-12-19T07:55:16.515Z,57.00
2022-12-19T07:57:47.069Z,59.63
2022-12-19T08:00:15.339Z,34.40
2022-12-19T08:02:42.947Z,51.17
2022-12-19T08:05:11.712Z,38.67
2022-12-19T08:07:38.701Z,44.17
2022-12-19T08:10:07.025Z,27.77
2022-12-19T08:12:34.463Z,35.28
2022-12-19T08:15:01.397Z,31.05
2022-12-19T08:17:28.525Z,31.45
2022-12-19T08:19:55.822Z,29.67
2022-12-19T08:22:23.311Z,27.52
2022-12-19T08:24:50.553Z,33.17
2022-12-19T08:27:17.758Z,35.88
2022-12-19T08:29:44.891Z,34.38
2022-12-19T08:32:17.058Z,37.50
2022-12-19T08:34:47.526Z,37.83
2022-12-19T08:37:14.656Z,43.25
2022-12-19T08:39:41.499Z,34.13
2022-12-19T08:42:08.369Z,36.85
2022-12-19T08:44:35.862Z,43.47
2022-12-19T08:47:04.726Z,33.10
2022-12-19T08:49:31.654Z,39.67
2022-12-19T08:52:01.990Z,21.60
2022-12-19T08:54:28.859Z,36.45
2022-12-19T08:56:56.841Z,35.03
2022-12-19T08:59:30.734Z,31.48
2022-12-19T09:02:03.457Z,30.98
2022-12-19T09:05:57.342Z,31.95
2022-12-19T09:07:22.345Z,33.47
2022-12-19T09:09:49.106Z,40.43
2022-12-19T09:12:16.822Z,35.47
2022-12-19T09:14:44.474Z,26.60
2022-12-19T09:17:11.341Z,41.10
2022-12-19T09:19:38.212Z,33.78
2022-12-19T09:22:05.888Z,32.13
2022-12-19T09:24:33.854Z,29.67
2022-12-19T09:27:00.633Z,29.77
2022-12-19T09:29:32.221Z,28.67
2022-12-19T09:32:01.971Z,29.63
2022-12-19T09:34:38.145Z,26.20
2022-12-19T09:37:16.024Z,26.63
2022-12-19T09:39:45.660Z,23.65
2022-12-19T09:42:22.359Z,30.98
2022-12-19T09:45:08.297Z,33.00
2022-12-19T09:47:39.672Z,20.63
2022-12-19T09:50:30.726Z,26.42
2022-12-19T09:53:08.257Z,32.75
2022-12-19T09:55:38.101Z,31.85
2022-12-19T09:58:43.506Z,29.10
2022-12-19T10:01:19.614Z,29.83
2022-12-19T10:03:59.612Z,27.65
2022-12-19T10:07:21.277Z,25.65
2022-12-19T10:12:05.135Z,25.52
2022-12-19T10:12:44.448Z,28.50
2022-12-19T10:15:26.211Z,29.10
2022-12-19T10:18:20.582Z,36.10
2022-12-19T10:21:59.059Z,32.80
2022-12-19T10:24:23.804Z,26.15
2022-12-19T10:26:56.941Z,30.67
2022-12-19T10:30:01.281Z,32.30
2022-12-19T10:32:54.794Z,28.67
2022-12-19T10:35:22.587Z,26.55
2022-12-19T10:38:05.346Z,21.95
2022-12-19T10:40:37.612Z,23.77
2022-12-19T10:43:33.946Z,24.67
2022-12-19T10:46:13.395Z,28.25
2022-12-19T10:48:40.376Z,28.73
2022-12-19T10:51:13.684Z,23.83
2022-12-19T10:54:09.029Z,25.67
2022-12-19T10:56:37.957Z,28.90
2022-12-19T10:59:16.121Z,24.80
2022-12-19T11:01:43.438Z,31.27
2022-12-19T11:04:30.671Z,29.67
2022-12-19T11:07:03.708Z,28.90
2022-12-19T11:09:32.809Z,27.93
2022-12-19T11:18:15.275Z,31.00
2022-12-19T11:19:42.603Z,21.80
2022-12-19T11:29:17.150Z,31.25
2022-12-19T11:29:32.465Z,27.10
2022-12-19T11:29:42.762Z,33.80
2022-12-19T11:30:35.302Z,28.60
2022-12-19T11:31:52.977Z,28.25
2022-12-19T11:32:40.658Z,26.63
2022-12-19T11:35:18.508Z,30.35
2022-12-19T11:38:06.177Z,27.87
2022-12-19T11:40:34.040Z,28.83
2022-12-19T11:43:46.657Z,29.73
2022-12-19T11:46:41.430Z,35.55
2022-12-19T11:49:13.529Z,28.52
2022-12-19T11:51:45.855Z,26.73
2022-12-19T11:54:23.901Z,27.65
2022-12-19T11:56:51.113Z,30.70
2022-12-19T11:59:27.743Z,32.60
2022-12-19T12:02:25.635Z,32.45
2022-12-19T12:05:17.170Z,38.20
2022-12-19T12:11:07.983Z,30.55
2022-12-19T12:16:00.717Z,33.38
2022-12-19T12:23:43.105Z,33.22
2022-12-19T12:31:01.842Z,27.95
2022-12-19T12:31:08.710Z,28.73
2022-12-19T12:31:39.146Z,33.47
2022-12-19T12:31:39.618Z,33.70
2022-12-19T12:31:40.352Z,28.63
2022-12-19T12:35:48.609Z,23.95
2022-12-19T12:42:05.592Z,25.98
2022-12-19T12:44:41.102Z,28.92
2022-12-19T12:47:24.384Z,30.67
2022-12-19T12:50:13.870Z,27.47
2022-12-19T12:52:44.080Z,29.67
2022-12-19T12:55:30.234Z,36.95
2022-12-19T12:57:57.866Z,31.15
2022-12-19T13:00:26.933Z,33.33
2022-12-19T13:03:12.003Z,32.40
2022-12-19T13:05:40.893Z,33.97
2022-12-19T13:08:34.277Z,31.88
2022-12-19T13:11:03.492Z,30.30
2022-12-19T13:13:58.200Z,34.45
2022-12-19T13:16:43.316Z,29.77
2022-12-19T13:19:35.359Z,28.30
2022-12-19T13:22:05.627Z,30.13
2022-12-19T13:24:45.400Z,26.77
2022-12-19T13:27:21.575Z,35.33
2022-12-19T13:30:00.767Z,31.93
2022-12-19T13:32:32.621Z,31.92
2022-12-19T13:35:56.522Z,31.52
2022-12-19T13:40:01.585Z,29.80
2022-12-19T13:41:02.017Z,30.52
2022-12-19T13:43:47.862Z,36.17
2022-12-19T13:46:29.193Z,33.10
2022-12-19T13:49:00.439Z,31.35
2022-12-19T13:51:27.422Z,29.75
2022-12-19T13:53:59.559Z,34.08
2022-12-19T13:56:30.812Z,29.80
2022-12-19T13:59:00.732Z,26.60
2022-12-19T14:01:33.556Z,34.47
2022-12-19T14:04:07.894Z,33.10
2022-12-19T14:06:47.513Z,28.30
2022-12-19T14:11:26.874Z,33.30
2022-12-19T14:13:52.979Z,29.30
2022-12-19T14:15:41.227Z,32.60
2022-12-19T14:18:45.107Z,33.05
2022-12-19T14:22:04.607Z,29.80
2022-12-19T14:24:11.008Z,30.93
2022-12-19T14:28:17.737Z,29.35
2022-12-19T14:30:28.625Z,32.55
2022-12-19T14:33:44.255Z,40.20
2022-12-19T14:36:06.038Z,33.95
2022-12-19T14:39:20.914Z,30.57
2022-12-19T14:41:08.440Z,33.33
2022-12-19T14:43:58.694Z,32.72
2022-12-19T14:52:35.101Z,32.58
2022-12-19T14:54:10.728Z,30.48
2022-12-19T14:54:30.698Z,34.67
2022-12-19T14:56:13.076Z,30.20
2022-12-19T14:58:54.819Z,34.28
2022-12-19T15:01:26.051Z,38.90
2022-12-19T15:04:48.616Z,33.58
2022-12-19T15:07:23.471Z,31.50
2022-12-19T15:11:06.146Z,38.08
2022-12-19T15:14:53.151Z,37.53
2022-12-19T15:16:26.959Z,33.38
2022-12-19T15:18:57.380Z,32.83
2022-12-19T15:21:24.933Z,39.93
2022-12-19T15:23:52.232Z,19.98
2022-12-19T15:26:27.358Z,34.38
2022-12-19T15:28:56.411Z,35.85
2022-12-19T15:31:30.290Z,33.63
2022-12-19T15:36:45.440Z,35.70
2022-12-19T15:39:15.143Z,37.13
2022-12-19T15:41:42.619Z,35.30
2022-12-19T15:44:19.315Z,32.92
2022-12-19T15:46:49.192Z,34.47
2022-12-19T15:49:19.162Z,32.03
2022-12-19T15:51:47.281Z,28.05
2022-12-19T15:54:47.242Z,50.40
2022-12-19T15:57:01.938Z,35.30
2022-12-19T15:59:37.464Z,35.77
2022-12-19T16:02:15.990Z,34.58
2022-12-19T16:04:44.187Z,29.55
2022-12-19T16:07:19.500Z,34.38
2022-12-19T16:09:47.173Z,36.38
2022-12-19T16:12:22.467Z,34.10
2022-12-19T16:14:56.343Z,36.78
2022-12-19T16:17:25.420Z,35.28
2022-12-19T16:19:52.669Z,34.03
2022-12-19T16:22:23.179Z,37.42
2022-12-19T16:24:51.470Z,33.07
2022-12-19T16:27:21.476Z,41.75
2022-12-19T16:29:48.721Z,40.83
2022-12-19T16:32:16.101Z,37.17
2022-12-19T16:34:43.299Z,39.03
2022-12-19T16:37:10.318Z,38.17
2022-12-19T16:39:37.434Z,34.08
2022-12-19T16:42:05.957Z,40.88
2022-12-19T16:44:34.430Z,43.33
2022-12-19T16:47:01.333Z,36.20
2022-12-19T16:49:28.627Z,35.70
2022-12-19T16:51:55.486Z,39.72
2022-12-19T16:54:22.691Z,37.72
2022-12-19T16:56:52.313Z,36.33
2022-12-19T16:59:22.126Z,32.78
2022-12-19T17:01:49.645Z,35.17
2022-12-19T17:04:22.830Z,36.65
2022-12-19T17:06:52.464Z,36.13
2022-12-19T17:09:23.527Z,43.22
2022-12-19T17:11:53.742Z,38.78
2022-12-19T17:14:26.570Z,40.67
2022-12-19T17:16:55.615Z,40.55
2022-12-19T17:19:36.978Z,41.85
2022-12-19T17:22:13.138Z,37.70
2022-12-19T17:24:40.574Z,40.65
2022-12-19T17:27:08.224Z,47.17
2022-12-19T17:29:35.226Z,40.47
2022-12-19T17:32:02.798Z,45.58
2022-12-19T17:34:32.226Z,38.97
2022-12-19T17:37:00.747Z,41.88
2022-12-19T17:39:29.684Z,37.57
2022-12-19T17:41:59.751Z,35.08
2022-12-19T17:44:27.326Z,40.92
2022-12-19T17:46:54.756Z,38.80
2022-12-19T17:49:27.327Z,36.10
2022-12-19T17:51:55.156Z,37.23
2022-12-19T17:54:23.483Z,44.90
2022-12-19T17:56:51.471Z,42.15
2022-12-19T17:59:19.429Z,41.78
2022-12-19T18:01:47.525Z,37.58
2022-12-19T18:04:17.343Z,39.80
2022-12-19T18:06:45.285Z,42.38
2022-12-19T18:09:20.347Z,39.38
2022-12-19T18:11:48.765Z,37.58
2022-12-19T18:14:16.606Z,33.10
2022-12-19T18:16:44.766Z,37.20
2022-12-19T18:19:19.727Z,35.83
2022-12-19T18:21:47.186Z,42.58
2022-12-19T18:24:18.182Z,38.05
2022-12-19T18:26:45.634Z,37.15
2022-12-19T18:29:13.563Z,42.40
2022-12-19T18:31:48.190Z,30.30
2022-12-19T18:34:20.181Z,33.15
2022-12-19T18:36:47.616Z,38.55
2022-12-19T18:39:28.628Z,36.15
2022-12-19T18:41:56.109Z,32.87
2022-12-19T18:44:23.649Z,41.63
2022-12-19T18:46:52.015Z,42.47
2022-12-19T18:49:19.835Z,42.40
2022-12-19T18:51:47.324Z,39.45
2022-12-19T18:54:18.520Z,42.60
2022-12-19T18:56:46.446Z,39.83
2022-12-19T18:59:14.203Z,38.55
2022-12-19T19:01:44.815Z,47.80
2022-12-19T19:04:14.635Z,49.33
2022-12-19T19:06:48.538Z,45.00
2022-12-19T19:09:18.525Z,37.88
2022-12-19T19:11:45.915Z,37.03
2022-12-19T19:14:13.377Z,39.95
2022-12-19T19:16:40.817Z,35.92
2022-12-19T19:19:11.217Z,38.43
2022-12-19T19:21:39.220Z,38.90
2022-12-19T19:24:09.528Z,38.17
2022-12-19T19:26:37.126Z,37.03
2022-12-19T19:29:05.545Z,37.15
2022-12-19T19:31:35.851Z,38.67
2022-12-19T19:34:13.227Z,37.05
2022-12-19T19:36:42.806Z,41.53
2022-12-19T19:39:11.237Z,35.80
2022-12-19T19:41:38.667Z,38.58
2022-12-19T19:44:05.927Z,40.73
2022-12-19T19:46:33.315Z,35.08
2022-12-19T19:49:00.553Z,40.40
2022-12-19T19:51:29.255Z,40.63
2022-12-19T19:53:56.668Z,35.60
2022-12-19T19:56:24.400Z,40.03
2022-12-19T19:58:52.567Z,36.97
2022-12-19T20:01:20.167Z,36.20
2022-12-19T20:03:48.713Z,35.67
2022-12-19T20:06:16.665Z,41.10
2022-12-19T20:08:43.928Z,39.23
2022-12-19T20:11:11.236Z,43.95
2022-12-19T20:13:38.696Z,34.60
2022-12-19T20:16:10.472Z,39.80
2022-12-19T20:18:40.064Z,35.30
2022-12-19T20:21:12.681Z,36.10
2022-12-19T20:23:42.345Z,42.42
2022-12-19T20:26:11.699Z,36.90
2022-12-19T20:28:47.851Z,40.15
2022-12-19T20:31:16.843Z,41.80
2022-12-19T20:33:45.373Z,32.77
2022-12-19T20:36:13.868Z,39.17
2022-12-19T20:38:41.308Z,37.05
2022-12-19T20:41:09.080Z,43.80
2022-12-19T20:43:38.455Z,35.80
2022-12-19T20:46:14.018Z,35.50
2022-12-19T20:48:41.696Z,38.13
2022-12-19T20:51:10.127Z,40.80
2022-12-19T20:53:38.613Z,43.38
2022-12-19T20:56:07.085Z,42.42
2022-12-19T20:58:36.381Z,39.80
2022-12-19T21:01:12.137Z,41.17
2022-12-19T21:03:40.032Z,39.03
2022-12-19T21:06:09.172Z,39.35
2022-12-19T21:08:36.911Z,38.15
2022-12-19T21:11:05.753Z,39.40
2022-12-19T21:13:33.537Z,37.22
2022-12-19T21:16:07.417Z,42.50
2022-12-19T21:18:36.861Z,37.42
2022-12-19T21:21:04.727Z,41.65
2022-12-19T21:23:32.417Z,42.73
2022-12-19T21:26:01.482Z,41.28
2022-12-19T21:28:29.476Z,38.75
2022-12-19T21:31:06.945Z,46.25
2022-12-19T21:33:34.464Z,42.10
2022-12-19T21:36:09.864Z,42.57
2022-12-19T21:38:37.829Z,41.70
2022-12-19T21:41:06.116Z,45.65
2022-12-19T21:43:36.975Z,43.50
2022-12-19T21:46:14.361Z,43.35
2022-12-19T21:48:43.972Z,42.93
2022-12-19T21:51:12.763Z,36.42
2022-12-19T21:53:40.638Z,44.17
2022-12-19T21:56:26.640Z,38.45
2022-12-19T21:58:59.207Z,39.42
2022-12-19T22:01:27.982Z,38.37
2022-12-19T22:04:06.850Z,39.72
2022-12-19T22:06:35.337Z,40.88
2022-12-19T22:09:04.324Z,43.78
2022-12-19T22:11:31.877Z,42.30
2022-12-19T22:14:01.074Z,40.27
2022-12-19T22:16:29.444Z,42.80
2022-12-19T22:18:56.991Z,51.65
2022-12-19T22:21:25.432Z,45.72
2022-12-19T22:23:53.117Z,47.25
2022-12-19T22:26:22.883Z,44.60
2022-12-19T22:28:53.121Z,43.42
2022-12-19T22:31:31.707Z,37.90
2022-12-19T22:34:03.088Z,42.75
2022-12-19T22:36:32.462Z,43.63
2022-12-19T22:39:01.785Z,41.63
2022-12-19T22:41:28.986Z,42.45
2022-12-19T22:43:56.794Z,45.00
2022-12-19T22:46:30.043Z,44.03
2022-12-19T22:48:58.999Z,38.67
2022-12-19T22:51:27.502Z,45.97
2022-12-19T22:53:56.795Z,41.78
2022-12-19T22:56:26.990Z,47.72
2022-12-19T22:58:56.671Z,42.67
2022-12-19T23:01:26.894Z,40.78
2022-12-19T23:03:55.889Z,44.10
2022-12-19T23:06:25.616Z,43.45
2022-12-19T23:08:53.602Z,43.05
2022-12-19T23:11:25.512Z,46.47
2022-12-19T23:13:52.909Z,39.75
2022-12-19T23:16:20.727Z,42.10
2022-12-19T23:18:48.259Z,41.10
2022-12-19T23:21:18.818Z,47.28
2022-12-19T23:23:47.260Z,41.03
2022-12-19T23:26:17.527Z,40.65
2022-12-19T23:28:45.533Z,44.23
2022-12-19T23:31:13.911Z,40.72
2022-12-19T23:33:41.709Z,45.10
2022-12-19T23:36:10.527Z,44.42
2022-12-19T23:38:37.925Z,55.90
2022-12-19T23:41:07.731Z,42.47
2022-12-19T23:43:36.589Z,41.78
2022-12-19T23:46:13.986Z,40.45
2022-12-19T23:48:42.157Z,42.90
2022-12-19T23:51:12.929Z,41.90
2022-12-19T23:53:40.541Z,48.47
2022-12-19T23:56:12.713Z,43.35
2022-12-19T23:58:40.735Z,45.72
